ENOA

Oseberg A Platform Heliport

Norway
METAR ENOA 160450Z 14056G75KT 9999 OVC030 05/M01 Q1004 W///S7
Observed Flight Rules
Dec-16 @ 04:50 UTC (an hour ago) Marginal Visual Flight Rules
Wind Visibility Clouds
140° at 56 knots
 Gusting to 75 knots
10,000+ meters
  • Overcast at 3,000' AGL
Temperatures Readings
Current 5°C / 41°F
Dewpoint -1°C / 30°F
Humidity 66%
Altimeter 29.65" Hg
Pressure 1004 hPa
Elevation 5
METAR ENOA 160450Z 14056G75KT 9999 OVC030 05/M01 Q1004 W///S7
Observed Flight Rules
Dec-16 @ 04:50 UTC
(an hour ago)
MVFR
Wind Visibility
140° at 56 knots
 Gusting to 75 knots
10,000+ meters
Clouds
  • Overcast at 3,000' AGL
Temperature Dewpoint
5°C / 41°F -1°C / 30°F
Humidity Altimeter Pressure
66% 29.65" Hg 1004 hPa